Time;durP1;ratioP1;P1;durP2;ratioP2;P2;SDS_P1;SDS_P2;PMS_P1;PMS_P2;Temp;Humidity;BMP_temperature;BMP_pressure;BME280_temperature;BME280_humidity;BME280_pressure;Samples;Min_cycle;Max_cycle;Signal;HPM_P1;HPM_P2
2022/12/18 00:02:05;;;;;;;217.15;51.85;;;;;;;;;;4985325;28;20391;-81
2022/12/18 00:04:31;;;;;;;234.55;56.47;;;;;;;;;;4987974;28;20160;-81
2022/12/18 00:06:57;;;;;;;212.00;54.92;;;;;;;;;;4985529;28;20030;-81
2022/12/18 00:09:23;;;;;;;214.50;54.13;;;;;;;;;;5003743;28;20145;-81
2022/12/18 00:11:50;;;;;;;222.73;54.88;;;;;;;;;;4984302;28;20129;-88
2022/12/18 00:14:16;;;;;;;230.43;56.55;;;;;;;;;;4990085;28;20106;-80
2022/12/18 00:16:44;;;;;;;229.20;59.30;;;;;;;;;;4990268;28;20033;-81
2022/12/18 00:19:10;;;;;;;224.85;58.03;;;;;;;;;;4965235;28;20030;-81
2022/12/18 00:21:36;;;;;;;227.82;58.88;;;;;;;;;;4989998;28;20069;-81
2022/12/18 00:24:02;;;;;;;238.23;60.25;;;;;;;;;;4968682;28;20030;-81
2022/12/18 00:26:30;;;;;;;222.77;58.55;;;;;;;;;;4989362;28;20045;-81
2022/12/18 00:29:01;;;;;;;230.35;58.55;;;;;;;;;;4990735;28;20077;-81
2022/12/18 00:31:27;;;;;;;216.07;56.38;;;;;;;;;;4989938;28;20037;-81
2022/12/18 00:33:55;;;;;;;224.00;57.05;;;;;;;;;;5006130;28;20113;-81
2022/12/18 00:36:22;;;;;;;217.40;56.50;;;;;;;;;;4988170;28;20532;-81
2022/12/18 00:38:51;;;;;;;253.45;61.67;;;;;;;;;;4987986;28;20116;-82
2022/12/18 00:42:55;;;;;;;228.32;57.58;;;;;;;;;;4982357;28;20129;-81
2022/12/18 00:44:05;;;;;;;236.98;59.67;;;;;;;;;;4990183;28;20066;-81
2022/12/18 00:46:31;;;;;;;222.43;58.95;;;;;;;;;;4990723;28;20026;-81
2022/12/18 00:48:57;;;;;;;232.68;59.10;;;;;;;;;;4991203;28;20104;-81
2022/12/18 00:51:23;;;;;;;209.27;57.17;;;;;;;;;;4987804;28;20049;-81
2022/12/18 00:53:50;;;;;;;221.80;57.47;;;;;;;;;;4988993;28;20035;-83
2022/12/18 00:56:16;;;;;;;204.15;57.42;;;;;;;;;;4989513;28;20042;-81
2022/12/18 00:58:42;;;;;;;220.90;58.20;;;;;;;;;;4991382;28;20082;-81
2022/12/18 01:01:08;;;;;;;238.57;59.90;;;;;;;;;;5002790;28;20058;-81
2022/12/18 01:03:34;;;;;;;225.27;57.58;;;;;;;;;;5003750;28;20038;-81
2022/12/18 01:06:05;;;;;;;220.13;60.78;;;;;;;;;;4987422;28;20575;-81
2022/12/18 01:08:32;;;;;;;226.05;60.85;;;;;;;;;;4988789;28;20401;-81
2022/12/18 01:10:58;;;;;;;221.60;60.22;;;;;;;;;;5001722;28;20475;-81
2022/12/18 01:13:25;;;;;;;218.20;58.28;;;;;;;;;;4986463;28;20038;-81
2022/12/18 01:15:51;;;;;;;215.98;57.17;;;;;;;;;;4968687;28;20030;-82
2022/12/18 01:18:17;;;;;;;265.55;64.15;;;;;;;;;;4990851;28;20037;-81
2022/12/18 01:20:43;;;;;;;304.75;63.35;;;;;;;;;;4987798;28;20129;-81
2022/12/18 01:23:09;;;;;;;260.65;61.97;;;;;;;;;;4998475;28;20117;-81
2022/12/18 01:25:39;;;;;;;262.25;63.78;;;;;;;;;;4988493;28;20503;-81
2022/12/18 01:28:05;;;;;;;257.73;62.28;;;;;;;;;;4988832;28;20033;-81
2022/12/18 01:30:35;;;;;;;255.50;59.92;;;;;;;;;;4965934;28;20043;-81
2022/12/18 01:33:01;;;;;;;232.93;59.15;;;;;;;;;;4987995;28;20026;-81
2022/12/18 01:35:27;;;;;;;244.18;61.88;;;;;;;;;;4986014;28;20023;-81
2022/12/18 01:37:56;;;;;;;254.35;60.53;;;;;;;;;;4989278;28;20120;-81
2022/12/18 01:40:23;;;;;;;266.55;62.38;;;;;;;;;;4986463;28;20046;-81
2022/12/18 01:42:52;;;;;;;237.82;58.97;;;;;;;;;;4987242;28;20034;-81
2022/12/18 01:45:21;;;;;;;226.45;58.42;;;;;;;;;;5001906;28;20034;-81
2022/12/18 01:47:49;;;;;;;219.77;56.58;;;;;;;;;;4994650;28;20034;-81
2022/12/18 01:50:15;;;;;;;224.02;59.45;;;;;;;;;;4987120;28;20029;-81
2022/12/18 01:52:47;;;;;;;231.25;59.22;;;;;;;;;;4981275;28;20030;-81
2022/12/18 01:55:13;;;;;;;235.40;60.97;;;;;;;;;;4986823;28;20113;-81
2022/12/18 01:57:40;;;;;;;246.52;60.63;;;;;;;;;;4983527;28;20073;-81
2022/12/18 02:00:08;;;;;;;232.65;61.20;;;;;;;;;;4991027;28;20034;-81
2022/12/18 02:02:44;;;;;;;220.32;55.78;;;;;;;;;;4983139;28;20033;-81
2022/12/18 02:05:13;;;;;;;238.02;60.13;;;;;;;;;;4988673;28;20026;-82
2022/12/18 02:08:03;;;;;;;217.90;58.35;;;;;;;;;;4989553;28;20423;-81
2022/12/18 02:10:38;;;;;;;213.02;58.15;;;;;;;;;;4985821;28;20070;-81
2022/12/18 02:13:07;;;;;;;222.20;60.38;;;;;;;;;;4984691;28;20019;-81
2022/12/18 02:15:39;;;;;;;214.55;56.80;;;;;;;;;;4981056;28;20384;-81
2022/12/18 02:18:20;;;;;;;214.18;58.92;;;;;;;;;;4977704;28;20053;-81
2022/12/18 02:20:55;;;;;;;227.80;57.83;;;;;;;;;;4987366;28;20611;-81
2022/12/18 02:23:21;;;;;;;236.88;60.20;;;;;;;;;;4984413;28;20026;-81
2022/12/18 02:26:06;;;;;;;234.50;58.25;;;;;;;;;;4986972;28;20361;-81
2022/12/18 02:28:35;;;;;;;213.88;56.67;;;;;;;;;;4984272;28;20030;-81
2022/12/18 02:31:06;;;;;;;214.65;56.60;;;;;;;;;;4986628;28;20057;-81
2022/12/18 02:33:33;;;;;;;211.63;57.13;;;;;;;;;;4983441;28;20403;-81
2022/12/18 02:36:00;;;;;;;191.75;55.75;;;;;;;;;;4985790;28;20038;-81
2022/12/18 02:38:28;;;;;;;217.93;57.22;;;;;;;;;;4988349;28;20031;-81
2022/12/18 02:40:57;;;;;;;208.30;57.50;;;;;;;;;;4998116;28;20403;-81
2022/12/18 02:43:23;;;;;;;206.85;56.50;;;;;;;;;;4984586;28;20428;-81
2022/12/18 02:45:52;;;;;;;188.38;55.75;;;;;;;;;;5002570;28;20097;-81
2022/12/18 02:48:20;;;;;;;205.27;54.80;;;;;;;;;;4990534;28;20510;-81
2022/12/18 02:50:53;;;;;;;204.15;56.90;;;;;;;;;;4985275;28;20038;-81
2022/12/18 02:53:22;;;;;;;217.35;59.50;;;;;;;;;;4986326;28;20042;-81
2022/12/18 02:55:49;;;;;;;213.18;57.20;;;;;;;;;;4981693;28;20438;-83
2022/12/18 02:58:20;;;;;;;190.82;54.38;;;;;;;;;;4985661;28;20519;-81
2022/12/18 03:01:02;;;;;;;186.07;54.40;;;;;;;;;;4981124;28;20142;-81
2022/12/18 03:03:32;;;;;;;202.93;55.65;;;;;;;;;;4969034;28;20062;-81
2022/12/18 03:06:00;;;;;;;186.33;52.40;;;;;;;;;;4989133;28;20121;-81
2022/12/18 03:08:32;;;;;;;183.50;51.75;;;;;;;;;;5003170;28;20285;-81
2022/12/18 03:11:01;;;;;;;190.65;54.70;;;;;;;;;;4980539;28;20403;-81
2022/12/18 03:13:33;;;;;;;195.15;56.53;;;;;;;;;;5000896;28;20102;-81
2022/12/18 03:16:00;;;;;;;186.68;53.55;;;;;;;;;;4982305;28;20030;-80
2022/12/18 03:18:30;;;;;;;176.57;53.88;;;;;;;;;;4987632;28;20030;-81
2022/12/18 03:20:57;;;;;;;178.23;52.75;;;;;;;;;;4982980;28;20030;-81
2022/12/18 03:23:28;;;;;;;188.13;55.45;;;;;;;;;;4987711;28;20085;-81
2022/12/18 03:25:56;;;;;;;184.15;53.15;;;;;;;;;;4970506;28;20023;-81
2022/12/18 03:28:24;;;;;;;141.98;41.22;;;;;;;;;;4983745;28;20026;-81
2022/12/18 03:30:59;;;;;;;172.98;53.40;;;;;;;;;;4998814;28;20060;-81
2022/12/18 03:33:32;;;;;;;203.77;59.28;;;;;;;;;;4984767;28;20421;-81
2022/12/18 03:35:58;;;;;;;207.90;58.47;;;;;;;;;;4986435;28;20573;-81
2022/12/18 03:38:24;;;;;;;191.95;58.03;;;;;;;;;;4984472;28;20084;-81
2022/12/18 03:41:07;;;;;;;179.77;55.53;;;;;;;;;;4975619;28;20031;-82
2022/12/18 03:43:57;;;;;;;173.48;57.03;;;;;;;;;;4964316;28;20053;-81
2022/12/18 03:46:33;;;;;;;182.90;56.67;;;;;;;;;;4984771;28;20631;-81
2022/12/18 03:49:02;;;;;;;183.70;59.03;;;;;;;;;;4986799;28;20026;-82
2022/12/18 03:51:35;;;;;;;188.70;57.60;;;;;;;;;;4984002;28;20023;-81
2022/12/18 03:54:04;;;;;;;193.30;55.17;;;;;;;;;;4983881;28;20338;-82
2022/12/18 03:56:44;;;;;;;176.50;54.03;;;;;;;;;;4985736;28;20022;-82
2022/12/18 03:59:12;;;;;;;194.07;56.15;;;;;;;;;;4985385;28;20022;-81
2022/12/18 04:01:40;;;;;;;201.35;60.35;;;;;;;;;;4960220;28;20066;-82
2022/12/18 04:04:07;;;;;;;193.73;60.08;;;;;;;;;;4959756;28;20038;-82
2022/12/18 04:06:36;;;;;;;195.73;57.97;;;;;;;;;;4981907;28;20082;-81
2022/12/18 04:09:04;;;;;;;184.02;59.25;;;;;;;;;;4983299;28;20027;-82
2022/12/18 04:11:32;;;;;;;182.40;57.08;;;;;;;;;;4984242;28;20105;-82
2022/12/18 04:14:04;;;;;;;187.52;60.95;;;;;;;;;;5002792;28;20030;-82
2022/12/18 04:16:30;;;;;;;188.85;60.10;;;;;;;;;;4999646;28;20061;-82
2022/12/18 04:19:00;;;;;;;135.73;42.83;;;;;;;;;;4984836;28;20030;-81
2022/12/18 04:21:30;;;;;;;169.27;56.83;;;;;;;;;;4980416;28;20038;-81
2022/12/18 04:23:56;;;;;;;184.70;57.80;;;;;;;;;;4985909;28;20551;-82
2022/12/18 04:26:22;;;;;;;161.68;55.08;;;;;;;;;;4976994;28;20030;-81
2022/12/18 04:29:09;;;;;;;160.23;56.40;;;;;;;;;;4970586;28;20049;-81
2022/12/18 04:31:35;;;;;;;155.52;56.10;;;;;;;;;;4982408;28;20027;-81
2022/12/18 04:34:02;;;;;;;172.75;53.72;;;;;;;;;;4968150;28;20403;-81
2022/12/18 04:36:32;;;;;;;160.73;55.88;;;;;;;;;;4985506;28;20121;-81
2022/12/18 04:38:58;;;;;;;163.63;54.75;;;;;;;;;;4968001;28;20027;-80
2022/12/18 04:41:24;;;;;;;157.27;54.22;;;;;;;;;;4983214;28;20077;-80
2022/12/18 04:43:52;;;;;;;161.55;54.40;;;;;;;;;;4973018;28;20113;-81
2022/12/18 04:46:18;;;;;;;159.60;53.53;;;;;;;;;;4972971;28;20045;-82
2022/12/18 04:48:46;;;;;;;156.65;53.63;;;;;;;;;;4986545;28;20460;-82
2022/12/18 04:51:12;;;;;;;158.32;50.92;;;;;;;;;;4986232;28;20045;-81
2022/12/18 04:53:39;;;;;;;155.57;51.58;;;;;;;;;;4982278;28;20121;-82
2022/12/18 04:56:06;;;;;;;159.55;50.28;;;;;;;;;;4986721;28;20487;-82
2022/12/18 04:58:32;;;;;;;153.32;50.67;;;;;;;;;;4986154;28;20110;-83
2022/12/18 05:00:59;;;;;;;141.43;49.65;;;;;;;;;;4965758;28;20042;-82
2022/12/18 05:03:25;;;;;;;131.63;46.45;;;;;;;;;;4988852;28;20022;-82
2022/12/18 05:05:51;;;;;;;146.82;48.88;;;;;;;;;;4989909;28;20407;-81
2022/12/18 05:08:17;;;;;;;142.07;48.33;;;;;;;;;;4989237;28;20038;-82
2022/12/18 05:10:44;;;;;;;126.50;46.78;;;;;;;;;;4988305;28;20034;-82
2022/12/18 05:13:10;;;;;;;135.05;46.42;;;;;;;;;;4988473;28;20364;-82
2022/12/18 05:15:36;;;;;;;125.72;45.38;;;;;;;;;;4997626;28;20038;-82
2022/12/18 05:18:03;;;;;;;126.82;45.47;;;;;;;;;;4989790;28;20612;-82
2022/12/18 05:20:30;;;;;;;123.20;44.95;;;;;;;;;;4984726;28;20051;-81
2022/12/18 05:22:56;;;;;;;121.40;43.25;;;;;;;;;;4961666;28;20093;-82
2022/12/18 05:25:23;;;;;;;104.35;41.13;;;;;;;;;;4992636;28;20070;-81
2022/12/18 05:27:49;;;;;;;114.07;42.83;;;;;;;;;;4987923;28;20435;-81
2022/12/18 05:30:15;;;;;;;110.28;42.70;;;;;;;;;;4973404;28;20030;-81
2022/12/18 05:32:42;;;;;;;114.13;43.72;;;;;;;;;;5003317;28;20038;-81
2022/12/18 05:35:09;;;;;;;107.10;39.95;;;;;;;;;;4958252;28;20025;-81
2022/12/18 05:37:35;;;;;;;101.07;40.25;;;;;;;;;;4987449;28;20121;-81
2022/12/18 05:40:01;;;;;;;107.07;41.75;;;;;;;;;;5003932;28;20126;-82
2022/12/18 05:42:27;;;;;;;102.60;41.20;;;;;;;;;;4982010;28;20031;-81
2022/12/18 05:44:53;;;;;;;108.13;43.53;;;;;;;;;;4985122;28;20027;-83
2022/12/18 05:47:20;;;;;;;119.18;45.10;;;;;;;;;;4986493;28;20113;-81
2022/12/18 05:49:46;;;;;;;118.07;45.80;;;;;;;;;;4985556;28;20031;-82
2022/12/18 05:52:12;;;;;;;111.80;45.92;;;;;;;;;;4989174;28;20034;-82
2022/12/18 05:54:39;;;;;;;100.13;39.08;;;;;;;;;;4987527;28;20384;-81
2022/12/18 05:57:05;;;;;;;100.45;40.40;;;;;;;;;;4986219;28;20045;-81
2022/12/18 05:59:31;;;;;;;102.10;40.78;;;;;;;;;;4991247;28;20467;-82
2022/12/18 06:01:57;;;;;;;117.45;44.33;;;;;;;;;;4990368;28;20419;-81
2022/12/18 06:04:23;;;;;;;96.75;38.78;;;;;;;;;;4994619;28;20037;-81
2022/12/18 06:06:50;;;;;;;100.35;40.90;;;;;;;;;;4987003;28;20026;-81
2022/12/18 06:09:16;;;;;;;95.03;38.75;;;;;;;;;;5001868;28;20034;-82
2022/12/18 06:11:43;;;;;;;106.72;41.20;;;;;;;;;;4986302;28;20407;-80
2022/12/18 06:14:10;;;;;;;100.60;41.65;;;;;;;;;;4987910;28;20022;-81
2022/12/18 06:16:36;;;;;;;104.85;39.28;;;;;;;;;;4968833;28;20037;-81
2022/12/18 06:19:03;;;;;;;111.10;42.80;;;;;;;;;;4986923;28;20074;-81
2022/12/18 06:21:29;;;;;;;101.93;42.08;;;;;;;;;;5003969;28;20061;-81
2022/12/18 06:23:56;;;;;;;116.75;47.53;;;;;;;;;;4989608;28;20489;-83
2022/12/18 06:26:23;;;;;;;104.63;40.38;;;;;;;;;;4985882;28;20416;-82
2022/12/18 06:28:49;;;;;;;101.45;39.20;;;;;;;;;;4986052;28;20030;-82
2022/12/18 06:31:16;;;;;;;108.97;43.72;;;;;;;;;;4986069;28;20084;-82
2022/12/18 06:33:42;;;;;;;103.13;42.63;;;;;;;;;;4986393;28;20042;-81
2022/12/18 06:36:09;;;;;;;126.90;47.80;;;;;;;;;;4988755;28;20534;-81
2022/12/18 06:38:36;;;;;;;75.45;34.20;;;;;;;;;;4979594;28;20038;-81
2022/12/18 06:41:09;;;;;;;79.65;33.17;;;;;;;;;;4990901;28;20030;-82
2022/12/18 06:43:36;;;;;;;76.72;31.55;;;;;;;;;;4982811;28;20395;-81
2022/12/18 06:46:03;;;;;;;77.55;34.10;;;;;;;;;;4973791;28;20558;-81
2022/12/18 06:48:29;;;;;;;84.32;33.53;;;;;;;;;;4978740;28;20484;-81
2022/12/18 06:50:55;;;;;;;81.32;33.70;;;;;;;;;;4984781;28;20054;-81
2022/12/18 06:53:21;;;;;;;87.60;37.45;;;;;;;;;;4987099;28;20105;-81
2022/12/18 06:55:47;;;;;;;102.57;45.03;;;;;;;;;;4987663;28;20027;-81
2022/12/18 06:58:13;;;;;;;108.10;44.00;;;;;;;;;;4987350;28;20508;-81
2022/12/18 07:00:40;;;;;;;119.80;50.00;;;;;;;;;;4987176;28;20042;-82
2022/12/18 07:03:06;;;;;;;81.07;36.63;;;;;;;;;;4986274;28;20100;-81
2022/12/18 07:05:32;;;;;;;85.90;37.05;;;;;;;;;;4989396;28;20475;-81
2022/12/18 07:07:58;;;;;;;117.72;48.97;;;;;;;;;;4985891;28;20041;-82
2022/12/18 07:10:24;;;;;;;95.07;40.67;;;;;;;;;;4987803;28;20404;-81
2022/12/18 07:12:50;;;;;;;84.72;38.38;;;;;;;;;;4983849;28;20470;-84
2022/12/18 07:15:17;;;;;;;77.97;36.10;;;;;;;;;;4982134;28;20028;-81
2022/12/18 07:17:43;;;;;;;83.30;37.10;;;;;;;;;;4986401;28;20041;-81
2022/12/18 07:20:09;;;;;;;77.45;35.95;;;;;;;;;;4987371;28;20031;-82
2022/12/18 07:22:35;;;;;;;86.78;37.05;;;;;;;;;;4970414;28;20468;-81
2022/12/18 07:25:01;;;;;;;73.78;35.70;;;;;;;;;;4967450;28;20146;-82
2022/12/18 07:27:27;;;;;;;75.78;34.50;;;;;;;;;;4987106;28;20030;-81
2022/12/18 07:29:54;;;;;;;84.50;37.95;;;;;;;;;;4985790;28;20038;-84
2022/12/18 07:32:20;;;;;;;77.65;36.22;;;;;;;;;;4991916;28;20039;-81
2022/12/18 07:34:46;;;;;;;87.13;39.58;;;;;;;;;;4985816;28;20435;-81
2022/12/18 07:37:13;;;;;;;86.82;42.40;;;;;;;;;;4987094;28;20034;-79
2022/12/18 07:39:39;;;;;;;100.93;51.22;;;;;;;;;;4995144;28;21231;-81
2022/12/18 07:44:49;;;;;;;74.50;35.13;;;;;;;;;;4982718;28;20046;-81
2022/12/18 07:47:15;;;;;;;76.75;36.85;;;;;;;;;;4986353;28;20215;-81
2022/12/18 07:49:41;;;;;;;83.10;37.38;;;;;;;;;;4988136;28;20049;-81
2022/12/18 07:52:09;;;;;;;82.40;36.97;;;;;;;;;;4988170;28;20503;-81
2022/12/18 07:54:35;;;;;;;83.88;37.95;;;;;;;;;;4985056;28;20034;-81
2022/12/18 07:57:01;;;;;;;74.63;37.03;;;;;;;;;;4994996;28;20054;-81
2022/12/18 07:59:27;;;;;;;78.72;36.03;;;;;;;;;;4985050;28;20026;-81
2022/12/18 08:01:53;;;;;;;76.45;33.67;;;;;;;;;;4983338;28;20663;-81
2022/12/18 08:04:19;;;;;;;82.50;38.80;;;;;;;;;;4984821;28;20130;-81
2022/12/18 08:06:46;;;;;;;77.47;38.15;;;;;;;;;;4985800;28;20101;-81
2022/12/18 08:09:12;;;;;;;85.70;42.60;;;;;;;;;;5000647;28;20417;-80
2022/12/18 08:11:38;;;;;;;83.60;40.78;;;;;;;;;;4984712;28;20047;-81
2022/12/18 08:14:04;;;;;;;84.30;39.33;;;;;;;;;;4974158;28;20477;-81
2022/12/18 08:16:30;;;;;;;83.30;38.42;;;;;;;;;;4987969;28;20034;-81
2022/12/18 08:18:56;;;;;;;75.30;37.67;;;;;;;;;;4985857;28;20121;-82
2022/12/18 08:21:27;;;;;;;71.88;36.47;;;;;;;;;;4984491;28;20447;-81
2022/12/18 08:23:53;;;;;;;76.38;37.63;;;;;;;;;;4984180;28;20035;-81
2022/12/18 08:26:20;;;;;;;70.93;35.13;;;;;;;;;;4984672;28;20042;-81
2022/12/18 08:28:46;;;;;;;76.72;36.20;;;;;;;;;;4983309;28;20048;-81
2022/12/18 08:31:12;;;;;;;79.38;36.00;;;;;;;;;;4986416;28;20046;-81
2022/12/18 08:33:39;;;;;;;67.63;33.97;;;;;;;;;;4972065;28;20038;-81
2022/12/18 08:36:06;;;;;;;73.45;37.40;;;;;;;;;;4992332;28;20106;-81
2022/12/18 08:38:33;;;;;;;73.00;35.50;;;;;;;;;;4987335;28;20391;-81
2022/12/18 08:41:03;;;;;;;83.40;38.38;;;;;;;;;;4990825;28;20037;-81
2022/12/18 08:46:14;;;;;;;72.47;36.47;;;;;;;;;;4991364;28;20043;-82
2022/12/18 08:48:40;;;;;;;79.35;36.30;;;;;;;;;;4990164;28;20176;-81
2022/12/18 08:51:06;;;;;;;76.47;37.35;;;;;;;;;;5001348;28;20027;-81
2022/12/18 08:53:32;;;;;;;75.72;35.15;;;;;;;;;;4990513;28;20093;-80
2022/12/18 08:55:58;;;;;;;75.32;36.58;;;;;;;;;;4990407;28;20482;-82
2022/12/18 08:58:25;;;;;;;70.95;36.30;;;;;;;;;;4985964;28;20415;-82
2022/12/18 09:00:51;;;;;;;70.53;34.65;;;;;;;;;;5002527;28;20061;-82
2022/12/18 09:03:19;;;;;;;68.75;35.30;;;;;;;;;;4988672;28;20096;-81
2022/12/18 09:05:48;;;;;;;70.35;35.10;;;;;;;;;;4988667;28;20058;-82
2022/12/18 09:08:14;;;;;;;67.97;34.63;;;;;;;;;;4989274;28;20061;-82
2022/12/18 09:10:44;;;;;;;65.88;33.53;;;;;;;;;;4978620;28;20112;-82
2022/12/18 09:13:11;;;;;;;61.67;32.53;;;;;;;;;;4987262;28;20439;-81
2022/12/18 09:15:47;;;;;;;58.38;31.30;;;;;;;;;;4998283;28;20038;-81
2022/12/18 09:18:14;;;;;;;60.45;30.25;;;;;;;;;;4979648;28;20160;-80
2022/12/18 09:20:40;;;;;;;62.97;32.38;;;;;;;;;;4987461;28;20053;-82
2022/12/18 09:23:07;;;;;;;57.58;30.05;;;;;;;;;;4986995;28;20532;-81
2022/12/18 09:25:35;;;;;;;56.15;29.05;;;;;;;;;;5003741;28;20130;-81
2022/12/18 09:28:06;;;;;;;55.53;26.98;;;;;;;;;;5005049;28;20088;-82
2022/12/18 09:30:33;;;;;;;51.80;27.48;;;;;;;;;;4986584;28;20616;-81
2022/12/18 09:33:00;;;;;;;49.55;26.10;;;;;;;;;;4986129;28;20118;-82
2022/12/18 09:35:27;;;;;;;50.42;26.77;;;;;;;;;;4978760;28;20030;-81
2022/12/18 09:37:53;;;;;;;46.63;25.77;;;;;;;;;;4999956;28;20455;-82
2022/12/18 09:40:22;;;;;;;55.13;27.35;;;;;;;;;;4987925;28;20114;-81
2022/12/18 09:42:52;;;;;;;50.78;26.15;;;;;;;;;;4988769;28;20076;-81
2022/12/18 09:45:19;;;;;;;48.93;26.57;;;;;;;;;;4981855;28;20227;-81
2022/12/18 09:47:46;;;;;;;50.58;26.73;;;;;;;;;;4991185;28;20031;-81
2022/12/18 09:50:30;;;;;;;45.47;25.08;;;;;;;;;;4999668;28;20125;-81
2022/12/18 09:52:58;;;;;;;50.20;25.75;;;;;;;;;;4984274;28;20484;-89
2022/12/18 09:55:37;;;;;;;51.63;26.65;;;;;;;;;;4984616;28;20022;-81
2022/12/18 09:58:07;;;;;;;49.17;25.80;;;;;;;;;;4983562;28;20050;-81
2022/12/18 10:00:33;;;;;;;48.83;25.65;;;;;;;;;;4982315;28;20035;-82
2022/12/18 10:03:01;;;;;;;46.67;23.73;;;;;;;;;;4985739;28;20026;-81
2022/12/18 10:05:34;;;;;;;50.03;25.10;;;;;;;;;;4987551;28;20423;-81
2022/12/18 10:08:06;;;;;;;43.75;24.83;;;;;;;;;;5001096;28;20320;-82
2022/12/18 10:10:33;;;;;;;45.38;24.02;;;;;;;;;;4985952;28;20041;-81
2022/12/18 10:13:15;;;;;;;47.42;23.67;;;;;;;;;;4982515;28;20018;-81
2022/12/18 10:16:00;;;;;;;45.95;23.63;;;;;;;;;;4985403;28;20082;-81
2022/12/18 10:18:45;;;;;;;45.85;24.40;;;;;;;;;;4981020;28;20022;-81
2022/12/18 10:21:13;;;;;;;61.38;31.77;;;;;;;;;;4987229;28;20518;-81
2022/12/18 10:24:00;;;;;;;52.30;29.70;;;;;;;;;;4982219;28;20030;-82
2022/12/18 10:26:27;;;;;;;45.35;24.30;;;;;;;;;;4986626;28;20077;-80
2022/12/18 10:28:54;;;;;;;43.10;23.25;;;;;;;;;;4983420;28;20113;-89
2022/12/18 10:31:24;;;;;;;44.13;23.02;;;;;;;;;;4987578;28;20173;-86
2022/12/18 10:33:50;;;;;;;45.42;23.27;;;;;;;;;;4987451;28;20046;-87
2022/12/18 10:36:16;;;;;;;49.05;26.30;;;;;;;;;;4968371;28;20387;-81
2022/12/18 10:38:43;;;;;;;45.10;23.30;;;;;;;;;;4984768;28;20137;-81
2022/12/18 10:41:23;;;;;;;42.83;22.77;;;;;;;;;;4990541;28;20511;-80
2022/12/18 10:44:10;;;;;;;43.97;22.52;;;;;;;;;;4980928;28;20046;-81
2022/12/18 10:46:36;;;;;;;39.92;21.73;;;;;;;;;;5000316;28;20169;-82
2022/12/18 10:49:02;;;;;;;41.22;22.95;;;;;;;;;;4988375;28;21684;-81
2022/12/18 10:51:30;;;;;;;38.53;20.35;;;;;;;;;;4986047;28;20076;-81
2022/12/18 10:54:15;;;;;;;41.83;22.58;;;;;;;;;;4978406;28;20153;-82
2022/12/18 10:56:41;;;;;;;48.85;23.42;;;;;;;;;;4999972;28;20066;-81
2022/12/18 10:59:08;;;;;;;42.83;22.30;;;;;;;;;;4986689;28;20047;-82
2022/12/18 11:01:48;;;;;;;42.95;22.90;;;;;;;;;;4973507;28;20487;-81
2022/12/18 11:04:23;;;;;;;39.22;21.75;;;;;;;;;;4989849;28;20030;-82
2022/12/18 11:06:59;;;;;;;46.65;23.70;;;;;;;;;;4979187;28;20031;-81
2022/12/18 11:09:29;;;;;;;38.45;22.48;;;;;;;;;;4977512;28;20035;-81
2022/12/18 11:11:56;;;;;;;40.40;20.85;;;;;;;;;;4985249;28;20072;-82
2022/12/18 11:14:27;;;;;;;39.40;21.60;;;;;;;;;;4986497;28;20110;-80
2022/12/18 11:16:54;;;;;;;37.85;20.38;;;;;;;;;;4985571;28;20058;-81
2022/12/18 11:19:24;;;;;;;39.35;21.10;;;;;;;;;;4988143;28;20022;-81
2022/12/18 11:21:50;;;;;;;36.35;20.60;;;;;;;;;;4993287;28;20038;-81
2022/12/18 11:24:21;;;;;;;42.17;22.70;;;;;;;;;;4987787;28;20049;-81
2022/12/18 11:26:47;;;;;;;38.78;20.80;;;;;;;;;;4984432;28;20030;-81
2022/12/18 11:29:18;;;;;;;39.55;20.20;;;;;;;;;;4986105;28;20030;-83
2022/12/18 11:31:44;;;;;;;36.72;20.75;;;;;;;;;;4984531;28;20164;-81
2022/12/18 11:34:28;;;;;;;33.75;18.83;;;;;;;;;;4983066;28;20038;-82
2022/12/18 11:36:55;;;;;;;36.70;19.02;;;;;;;;;;4985619;28;20030;-81
2022/12/18 11:39:23;;;;;;;34.92;18.95;;;;;;;;;;4962476;28;20030;-81
2022/12/18 11:42:14;;;;;;;38.38;21.30;;;;;;;;;;4983627;28;20037;-81
2022/12/18 11:44:43;;;;;;;37.47;19.92;;;;;;;;;;4988863;28;20096;-81
2022/12/18 11:47:13;;;;;;;39.05;20.38;;;;;;;;;;4981804;28;20023;-81
2022/12/18 11:49:39;;;;;;;32.50;18.75;;;;;;;;;;4978857;28;20038;-81
2022/12/18 11:52:26;;;;;;;30.95;18.13;;;;;;;;;;5000179;28;20046;-81
2022/12/18 11:54:53;;;;;;;35.53;18.65;;;;;;;;;;4986883;28;20027;-80
2022/12/18 11:57:34;;;;;;;48.25;22.15;;;;;;;;;;4970473;28;20389;-81
2022/12/18 12:00:10;;;;;;;34.60;19.10;;;;;;;;;;4987310;28;20595;-82
2022/12/18 12:02:39;;;;;;;33.53;18.48;;;;;;;;;;4982979;28;20129;-82
2022/12/18 12:05:05;;;;;;;35.85;18.55;;;;;;;;;;4984526;28;21137;-81
2022/12/18 12:07:36;;;;;;;37.20;19.90;;;;;;;;;;4988773;28;20061;-82
2022/12/18 12:10:02;;;;;;;35.17;18.65;;;;;;;;;;4991168;28;20051;-80
2022/12/18 12:12:45;;;;;;;36.00;19.35;;;;;;;;;;4994219;28;20096;-81
2022/12/18 12:15:11;;;;;;;40.83;19.73;;;;;;;;;;4991068;28;20391;-81
2022/12/18 12:17:41;;;;;;;36.13;20.15;;;;;;;;;;4993349;28;20033;-81
2022/12/18 12:20:13;;;;;;;35.10;18.10;;;;;;;;;;4993959;28;20396;-80
2022/12/18 12:22:55;;;;;;;35.60;19.17;;;;;;;;;;4990870;28;20121;-83
2022/12/18 12:25:30;;;;;;;38.13;19.40;;;;;;;;;;4993713;28;20767;-82
2022/12/18 12:28:11;;;;;;;40.75;24.75;;;;;;;;;;4991060;28;20038;-82
2022/12/18 12:30:49;;;;;;;38.78;20.27;;;;;;;;;;4994600;28;20105;-82
2022/12/18 12:33:19;;;;;;;33.25;19.58;;;;;;;;;;5004859;28;20030;-82
2022/12/18 12:36:03;;;;;;;37.47;19.92;;;;;;;;;;4995161;28;20077;-81
2022/12/18 12:38:45;;;;;;;35.25;18.52;;;;;;;;;;4988316;28;20059;-80
2022/12/18 12:44:13;;;;;;;34.45;18.80;;;;;;;;;;4956627;28;20122;-80
2022/12/18 12:46:41;;;;;;;37.45;19.60;;;;;;;;;;4991059;28;20084;-81
2022/12/18 12:49:15;;;;;;;34.83;20.70;;;;;;;;;;4979334;28;20034;-80
2022/12/18 12:51:47;;;;;;;42.92;22.00;;;;;;;;;;4989559;28;20034;-81
2022/12/18 12:54:16;;;;;;;39.60;22.10;;;;;;;;;;4985400;28;20029;-82
2022/12/18 12:56:54;;;;;;;37.58;20.02;;;;;;;;;;4993496;28;20399;-82
2022/12/18 12:59:26;;;;;;;40.40;21.75;;;;;;;;;;4966364;28;20047;-82
2022/12/18 13:02:11;;;;;;;37.42;20.70;;;;;;;;;;4990906;28;20467;-81
2022/12/18 13:04:46;;;;;;;35.78;19.13;;;;;;;;;;4991952;28;20060;-82
2022/12/18 13:07:24;;;;;;;34.72;19.77;;;;;;;;;;4993131;28;20400;-82
2022/12/18 13:10:29;;;;;;;38.28;18.73;;;;;;;;;;4990399;28;20037;-82
2022/12/18 13:12:55;;;;;;;37.97;20.17;;;;;;;;;;4969247;28;20046;-81
2022/12/18 13:15:23;;;;;;;35.88;20.38;;;;;;;;;;4955360;28;20330;-81
2022/12/18 13:17:49;;;;;;;40.40;20.83;;;;;;;;;;4969527;28;20447;-81
2022/12/18 13:20:16;;;;;;;40.42;22.25;;;;;;;;;;4987005;28;20101;-81
2022/12/18 13:22:44;;;;;;;37.63;21.27;;;;;;;;;;4987287;28;20128;-81
2022/12/18 13:25:28;;;;;;;37.63;21.38;;;;;;;;;;4990470;28;20146;-80
2022/12/18 13:28:14;;;;;;;39.90;22.25;;;;;;;;;;5003895;28;20022;-81
2022/12/18 13:30:43;;;;;;;42.53;21.88;;;;;;;;;;4987575;28;20034;-82
2022/12/18 13:33:19;;;;;;;38.90;21.02;;;;;;;;;;4991991;28;20026;-80
2022/12/18 13:35:49;;;;;;;48.80;28.95;;;;;;;;;;4986478;28;20019;-81
2022/12/18 13:38:32;;;;;;;41.88;24.00;;;;;;;;;;4986261;28;20026;-80
2022/12/18 13:40:59;;;;;;;41.38;22.35;;;;;;;;;;4985002;28;20488;-80
2022/12/18 13:43:42;;;;;;;45.90;23.20;;;;;;;;;;4988270;28;20030;-80
2022/12/18 13:46:19;;;;;;;38.97;20.48;;;;;;;;;;4999380;28;20027;-80
2022/12/18 13:48:54;;;;;;;35.78;19.33;;;;;;;;;;4987285;28;20050;-80
2022/12/18 13:51:21;;;;;;;39.75;20.67;;;;;;;;;;4987126;28;20049;-80
2022/12/18 13:53:52;;;;;;;42.25;22.15;;;;;;;;;;4986943;28;20031;-81
2022/12/18 13:56:24;;;;;;;37.63;20.67;;;;;;;;;;4987324;28;20496;-80
2022/12/18 13:59:08;;;;;;;39.05;20.75;;;;;;;;;;4982085;28;20396;-80
2022/12/18 14:01:35;;;;;;;42.63;21.65;;;;;;;;;;4964878;28;20403;-80
2022/12/18 14:04:11;;;;;;;37.72;20.15;;;;;;;;;;4986239;28;20105;-82
2022/12/18 14:06:37;;;;;;;36.28;20.05;;;;;;;;;;4988552;28;20535;-82
2022/12/18 14:09:03;;;;;;;46.40;22.35;;;;;;;;;;4990088;28;20440;-82
2022/12/18 14:11:30;;;;;;;40.10;21.30;;;;;;;;;;4994852;28;20065;-80
2022/12/18 14:13:57;;;;;;;38.88;20.98;;;;;;;;;;4988740;28;20027;-82
2022/12/18 14:16:23;;;;;;;36.63;19.27;;;;;;;;;;4972227;28;20494;-81
2022/12/18 14:18:58;;;;;;;37.38;20.02;;;;;;;;;;5004018;28;20026;-82
2022/12/18 14:21:29;;;;;;;38.92;20.48;;;;;;;;;;4988286;28;20129;-82
2022/12/18 14:24:06;;;;;;;45.05;21.77;;;;;;;;;;4985891;28;20057;-81
2022/12/18 14:26:33;;;;;;;40.00;21.23;;;;;;;;;;4987845;28;20022;-80
2022/12/18 14:29:03;;;;;;;34.60;19.88;;;;;;;;;;4980897;28;20030;-80
2022/12/18 14:31:31;;;;;;;33.28;16.40;;;;;;;;;;4982804;28;20038;-79
2022/12/18 14:33:57;;;;;;;44.28;21.73;;;;;;;;;;4982480;28;20022;-80